Time;durP1;ratioP1;P1;durP2;ratioP2;P2;SDS_P1;SDS_P2;PMS_P1;PMS_P2;Temp;Humidity;BMP_temperature;BMP_pressure;BME280_temperature;BME280_humidity;BME280_pressure;Samples;Min_cycle;Max_cycle;Signal;HPM_P1;HPM_P2
2023/09/27 00:00:28;;;;;;;16.20;14.70;;;;;;;18.36;100.00;100825.20;108603;1250;69639;-61
2023/09/27 00:02:57;;;;;;;17.00;15.30;;;;;;;18.35;100.00;100830.05;108563;1254;72475;-61
2023/09/27 00:05:25;;;;;;;16.50;14.80;;;;;;;18.34;100.00;100827.09;108598;1251;61437;-61
2023/09/27 00:07:57;;;;;;;16.80;14.80;;;;;;;18.30;100.00;100826.08;108660;1251;59647;-61
2023/09/27 00:10:25;;;;;;;17.30;15.30;;;;;;;18.26;100.00;100823.95;108682;1249;73663;-61
2023/09/27 00:12:52;;;;;;;16.70;14.80;;;;;;;18.24;100.00;100823.94;108723;1251;68173;-61
2023/09/27 00:15:20;;;;;;;19.40;16.20;;;;;;;18.24;100.00;100823.36;108731;1251;71008;-61
2023/09/27 00:17:48;;;;;;;;;;;;;;;18.23;100.00;100825.56;108700;1251;62244;-61
2023/09/27 00:20:17;;;;;;;17.00;15.30;;;;;;;18.21;100.00;100823.39;108702;1250;60098;-61
2023/09/27 00:22:47;;;;;;;17.30;15.30;;;;;;;18.18;100.00;100824.58;108702;1250;72472;-61
2023/09/27 00:25:15;;;;;;;16.70;15.00;;;;;;;18.18;100.00;100824.79;108750;1250;70177;-62
2023/09/27 00:27:43;;;;;;;16.70;15.00;;;;;;;18.15;100.00;100823.89;108725;1250;72505;-61
2023/09/27 00:30:14;;;;;;;;;;;;;;;18.15;100.00;100824.39;108648;1257;61426;-62
2023/09/27 00:32:46;;;;;;;19.70;13.60;;;;;;;18.14;100.00;100820.42;108651;1250;58563;-62
2023/09/27 00:35:21;;;;;;;15.30;13.80;;;;;;;18.11;100.00;100821.08;108536;1251;73584;-62
2023/09/27 00:37:51;;;;;;;16.20;13.90;;;;;;;18.11;100.00;100817.55;108707;1249;70463;-62
2023/09/27 00:40:22;;;;;;;17.70;13.90;;;;;;;18.09;100.00;100813.36;108729;1249;72299;-62
2023/09/27 00:42:50;;;;;;;15.30;13.70;;;;;;;18.12;100.00;100817.66;108699;1254;61807;-62
2023/09/27 00:45:18;;;;;;;15.00;13.50;;;;;;;18.12;100.00;100814.83;108711;1250;58957;-62
2023/09/27 00:47:47;;;;;;;15.50;14.00;;;;;;;18.11;100.00;100816.49;108662;1254;73675;-62
2023/09/27 00:50:16;;;;;;;15.70;14.20;;;;;;;18.10;100.00;100812.08;108680;1251;69018;-62
2023/09/27 00:52:44;;;;;;;;;;;;;;;18.09;100.00;100814.46;108565;1251;72297;-63
2023/09/27 00:55:12;;;;;;;15.30;13.90;;;;;;;18.07;100.00;100810.69;108583;1251;61405;-62
2023/09/27 00:57:40;;;;;;;;;;;;;;;18.05;100.00;100812.75;108649;1251;60223;-62
2023/09/27 01:00:14;;;;;;;16.90;12.30;;;;;;;18.03;100.00;100810.52;108655;1251;74444;-62
2023/09/27 01:02:45;;;;;;;16.90;15.10;;;;;;;18.01;100.00;100810.61;108565;1251;69135;-63
2023/09/27 01:05:13;;;;;;;14.30;12.80;;;;;;;18.00;100.00;100812.30;108452;1251;72480;-62
2023/09/27 01:07:44;;;;;;;15.50;13.90;;;;;;;17.95;100.00;100812.59;108447;1249;62029;-62
2023/09/27 01:10:11;;;;;;;15.50;14.00;;;;;;;17.92;100.00;100807.77;108594;1250;60117;-63
2023/09/27 01:12:39;;;;;;;15.40;14.00;;;;;;;17.90;100.00;100808.95;108616;1251;74484;-62
2023/09/27 01:15:07;;;;;;;;;;;;;;;17.89;100.00;100807.39;108700;1251;69727;-63
2023/09/27 01:17:57;;;;;;;14.60;13.00;;;;;;;17.83;100.00;100808.80;108750;1249;72503;-63
2023/09/27 01:20:26;;;;;;;16.00;13.60;;;;;;;17.69;100.00;100812.52;108679;1251;61441;-62
2023/09/27 01:22:55;;;;;;;15.40;12.10;;;;;;;17.64;100.00;100816.86;108710;1251;59798;-61
2023/09/27 01:25:28;;;;;;;14.50;13.10;;;;;;;17.60;100.00;100815.50;108742;1250;72527;-62
2023/09/27 01:27:57;;;;;;;14.00;12.60;;;;;;;17.55;100.00;100817.20;108616;1250;69250;-63
2023/09/27 01:30:31;;;;;;;16.70;12.60;;;;;;;17.51;100.00;100819.70;108701;1251;72578;-63
2023/09/27 01:33:06;;;;;;;14.30;12.70;;;;;;;17.45;100.00;100817.86;108753;1251;62438;-63
2023/09/27 01:35:38;;;;;;;13.90;12.40;;;;;;;17.42;100.00;100815.02;108677;1249;59725;-63
2023/09/27 01:38:07;;;;;;;15.30;13.70;;;;;;;17.39;100.00;100814.65;108745;1249;73747;-63
2023/09/27 01:40:40;;;;;;;14.70;13.10;;;;;;;17.36;100.00;100816.57;108647;1249;69442;-63
2023/09/27 01:43:08;;;;;;;16.10;14.60;;;;;;;17.37;100.00;100818.10;108662;1251;72175;-64
2023/09/27 01:45:38;;;;;;;15.90;14.40;;;;;;;17.39;100.00;100819.25;108692;1251;61996;-63
2023/09/27 01:48:06;;;;;;;15.50;14.00;;;;;;;17.44;100.00;100822.00;108719;1251;60118;-63
2023/09/27 01:50:34;;;;;;;;;;;;;;;17.44;100.00;100819.52;108745;1251;73217;-63
2023/09/27 01:53:05;;;;;;;16.00;14.40;;;;;;;17.40;100.00;100819.92;108780;1249;69607;-64
2023/09/27 01:55:33;;;;;;;15.90;14.30;;;;;;;17.39;100.00;100818.02;108652;1251;72451;-64
2023/09/27 01:58:02;;;;;;;17.80;14.80;;;;;;;17.39;100.00;100821.75;108632;1251;62120;-64
2023/09/27 02:00:29;;;;;;;16.20;14.60;;;;;;;17.38;100.00;100827.62;108512;1250;60045;-64
2023/09/27 02:02:58;;;;;;;;;;;;;;;17.38;100.00;100826.73;108697;1251;73715;-64
2023/09/27 02:05:27;;;;;;;15.70;14.10;;;;;;;17.40;100.00;100829.66;108655;1251;69996;-64
2023/09/27 02:07:56;;;;;;;17.10;14.90;;;;;;;17.39;100.00;100826.02;108656;1251;72245;-64
2023/09/27 02:10:24;;;;;;;19.30;15.20;;;;;;;17.42;100.00;100821.77;108557;1250;61646;-64
2023/09/27 02:12:52;;;;;;;19.70;15.10;;;;;;;17.41;100.00;100824.84;108673;1251;59663;-64
2023/09/27 02:15:19;;;;;;;18.40;15.70;;;;;;;17.39;100.00;100823.50;108727;1251;73653;-64
2023/09/27 02:17:49;;;;;;;17.10;15.00;;;;;;;17.36;100.00;100825.95;108781;1250;69048;-64
2023/09/27 02:20:20;;;;;;;18.80;15.20;;;;;;;17.32;100.00;100825.63;108744;1251;72539;-64
2023/09/27 02:22:49;;;;;;;17.20;15.40;;;;;;;17.29;100.00;100826.68;108679;1250;62448;-64
2023/09/27 02:25:18;;;;;;;19.00;16.60;;;;;;;17.31;100.00;100827.31;108708;1251;60009;-64
2023/09/27 02:27:46;;;;;;;;;;;;;;;17.30;100.00;100829.45;108706;1253;73000;-63
2023/09/27 02:30:14;;;;;;;16.80;14.90;;;;;;;17.26;100.00;100831.61;108702;1250;69599;-64
2023/09/27 02:32:43;;;;;;;18.00;15.60;;;;;;;17.27;100.00;100834.23;108728;1251;73305;-64
2023/09/27 02:35:17;;;;;;;17.10;15.30;;;;;;;17.26;100.00;100833.77;108705;1250;61349;-64
2023/09/27 02:37:44;;;;;;;17.50;15.00;;;;;;;17.23;100.00;100830.55;108559;1251;60278;-65
2023/09/27 02:40:12;;;;;;;22.90;15.90;;;;;;;17.20;100.00;100831.24;108633;1249;74031;-64
2023/09/27 02:42:43;;;;;;;17.80;15.70;;;;;;;17.13;100.00;100832.45;108636;1251;68038;-64
2023/09/27 02:45:16;;;;;;;16.10;14.50;;;;;;;17.11;100.00;100833.61;108671;1251;72545;-64
2023/09/27 02:47:45;;;;;;;19.40;14.60;;;;;;;17.09;100.00;100837.30;108647;1253;61438;-64
2023/09/27 02:50:14;;;;;;;16.50;14.70;;;;;;;17.06;100.00;100834.77;108558;1251;59757;-61
2023/09/27 02:52:45;;;;;;;16.90;15.30;;;;;;;17.06;100.00;100837.59;108692;1251;72435;-64
2023/09/27 02:55:16;;;;;;;18.80;14.90;;;;;;;17.06;100.00;100840.61;108672;1251;69734;-64
2023/09/27 02:57:50;;;;;;;15.90;13.90;;;;;;;17.03;100.00;100840.59;108719;1250;72388;-64
2023/09/27 03:00:22;;;;;;;17.30;14.10;;;;;;;17.05;100.00;100841.05;108435;1250;61976;-64
2023/09/27 03:02:50;;;;;;;15.90;14.30;;;;;;;17.04;100.00;100838.96;108443;1254;59681;-64
2023/09/27 03:05:22;;;;;;;15.70;14.00;;;;;;;17.05;100.00;100838.19;108424;1251;72437;-64
2023/09/27 03:07:51;;;;;;;15.70;14.10;;;;;;;17.00;100.00;100837.02;108491;1251;70802;-63
2023/09/27 03:10:18;;;;;;;;;;;;;;;16.96;100.00;100837.95;108074;1251;523195;-64
2023/09/27 03:13:52;;;;;;;16.10;14.40;;;;;;;16.28;100.00;100832.54;101178;1295;601018;-62
2023/09/27 03:16:20;;;;;;;;;;;;;;;16.77;100.00;100840.10;103958;1270;61397;-63
2023/09/27 03:18:48;;;;;;;;;;;;;;;16.83;100.00;100842.27;103889;1263;59739;-63
2023/09/27 03:21:17;;;;;;;16.60;13.30;;;;;;;16.82;100.00;100846.08;103655;1266;72512;-62
2023/09/27 03:23:45;;;;;;;15.30;13.70;;;;;;;16.76;100.00;100842.98;103844;1270;70205;-62
2023/09/27 03:26:12;;;;;;;18.10;14.80;;;;;;;16.68;100.00;100847.59;103486;1270;72904;-62
2023/09/27 03:28:40;;;;;;;17.00;15.30;;;;;;;16.65;100.00;100843.00;103713;1267;255788;-62
2023/09/27 03:31:08;;;;;;;17.20;15.00;;;;;;;16.59;100.00;100845.23;103768;1263;59460;-61
2023/09/27 03:33:37;;;;;;;16.90;15.20;;;;;;;16.55;100.00;100843.48;103992;1270;72868;-62
2023/09/27 03:36:05;;;;;;;15.80;14.00;;;;;;;16.51;100.00;100848.27;103861;1261;69102;-61
2023/09/27 03:38:34;;;;;;;16.20;14.30;;;;;;;16.47;100.00;100845.43;103938;1260;72914;-62
2023/09/27 03:41:13;;;;;;;16.20;14.50;;;;;;;16.45;100.00;100844.15;103870;1272;61415;-62
2023/09/27 03:43:44;;;;;;;16.70;14.30;;;;;;;16.42;100.00;100841.81;103874;1271;59703;-62
2023/09/27 03:46:12;;;;;;;15.90;14.20;;;;;;;16.38;100.00;100841.83;103930;1285;73228;-62
2023/09/27 03:48:40;;;;;;;17.00;14.30;;;;;;;16.34;100.00;100842.86;103862;1267;70020;-62
2023/09/27 03:51:08;;;;;;;17.00;15.40;;;;;;;16.31;100.00;100843.52;103881;1268;72916;-62
2023/09/27 03:53:35;;;;;;;15.80;14.30;;;;;;;16.29;100.00;100844.16;103897;1263;62374;-61
2023/09/27 03:56:03;;;;;;;16.60;14.60;;;;;;;16.28;100.00;100837.70;104172;1276;60423;-62
2023/09/27 03:58:31;;;;;;;16.80;15.10;;;;;;;16.26;100.00;100840.61;105242;1262;72330;-61
2023/09/27 04:00:59;;;;;;;;;;;;;;;16.25;100.00;100840.65;103934;1273;69233;-61
2023/09/27 04:03:27;;;;;;;16.10;13.70;;;;;;;16.25;100.00;100841.40;103908;1278;72460;-61
2023/09/27 04:05:56;;;;;;;15.40;13.70;;;;;;;16.24;100.00;100838.58;103921;1260;61696;-61
2023/09/27 04:08:24;;;;;;;16.10;14.50;;;;;;;16.22;100.00;100838.86;103895;1261;60266;-64
2023/09/27 04:10:52;;;;;;;16.70;14.90;;;;;;;16.23;100.00;100838.98;103977;1259;72938;-63
2023/09/27 04:13:19;;;;;;;;;;;;;;;16.25;100.00;100840.30;104355;1256;70116;-63
2023/09/27 04:15:50;;;;;;;16.30;13.70;;;;;;;16.27;100.00;100842.15;104079;1279;73145;-64
2023/09/27 04:18:18;;;;;;;16.00;14.30;;;;;;;16.27;100.00;100845.52;104095;1273;60726;-63
2023/09/27 04:20:46;;;;;;;16.40;14.70;;;;;;;16.26;100.00;100844.48;104426;1255;59863;-65
2023/09/27 04:23:13;;;;;;;;;;;;;;;16.26;100.00;100846.65;104180;1256;72589;-66
2023/09/27 04:25:43;;;;;;;16.40;14.50;;;;;;;16.26;100.00;100851.04;104236;1260;69579;-65
2023/09/27 04:28:11;;;;;;;16.80;15.00;;;;;;;16.26;100.00;100849.09;104077;1279;72443;-66
2023/09/27 04:30:38;;;;;;;17.30;15.50;;;;;;;16.26;100.00;100854.05;104200;1259;61445;-64
2023/09/27 04:33:07;;;;;;;16.90;15.20;;;;;;;16.26;100.00;100851.40;104210;1256;60107;-63
2023/09/27 04:35:39;;;;;;;17.70;15.90;;;;;;;16.24;100.00;100854.88;104160;1263;72478;-62
2023/09/27 04:38:09;;;;;;;16.20;14.50;;;;;;;16.26;100.00;100852.67;104207;1260;70080;-63
2023/09/27 04:40:37;;;;;;;16.40;14.60;;;;;;;16.29;100.00;100850.22;106453;1256;72900;-64
2023/09/27 04:43:05;;;;;;;16.50;14.80;;;;;;;16.31;100.00;100850.27;104260;1256;61380;-64
2023/09/27 04:45:33;;;;;;;16.40;14.80;;;;;;;16.35;100.00;100851.87;104265;1255;59889;-63
2023/09/27 04:48:02;;;;;;;17.20;15.50;;;;;;;16.39;100.00;100853.77;104434;1259;72838;-63
2023/09/27 04:50:29;;;;;;;17.40;15.20;;;;;;;16.46;100.00;100848.52;107856;1256;68056;-63
2023/09/27 04:52:57;;;;;;;17.60;15.10;;;;;;;16.52;100.00;100851.05;105643;1256;73157;-63
2023/09/27 04:55:25;;;;;;;;;;;;;;;16.55;100.00;100850.70;104188;1256;61498;-63
2023/09/27 04:57:53;;;;;;;16.10;14.40;;;;;;;16.61;100.00;100850.95;104122;1262;59352;-63
2023/09/27 05:00:22;;;;;;;18.60;14.50;;;;;;;16.64;100.00;100852.23;104314;1263;71599;-63
2023/09/27 05:02:52;;;;;;;19.80;15.60;;;;;;;16.70;100.00;100852.11;108250;1253;70091;-62
2023/09/27 05:05:19;;;;;;;;;;;;;;;16.77;100.00;100857.30;108190;1253;72352;-63
2023/09/27 05:07:48;;;;;;;15.50;14.00;;;;;;;16.84;100.00;100854.83;104918;1256;61437;-62
2023/09/27 05:10:17;;;;;;;17.90;16.20;;;;;;;16.90;100.00;100858.95;104724;1260;59464;-61
2023/09/27 05:12:45;;;;;;;18.90;16.90;;;;;;;16.98;100.00;100855.76;108188;1254;74926;-63
2023/09/27 05:15:12;;;;;;;19.10;16.70;;;;;;;17.02;100.00;100855.01;106151;1256;69608;-62
2023/09/27 05:17:40;;;;;;;19.10;16.90;;;;;;;17.08;100.00;100853.25;104327;1276;72360;-62
2023/09/27 05:20:11;;;;;;;16.90;15.20;;;;;;;17.10;100.00;100842.38;104277;1261;61416;-64
2023/09/27 05:22:40;;;;;;;21.90;15.90;;;;;;;17.22;100.00;100850.97;104297;1259;59980;-65
2023/09/27 05:25:09;;;;;;;18.70;16.70;;;;;;;17.29;100.00;100850.98;104316;1277;73671;-63
2023/09/27 05:27:37;;;;;;;17.60;15.60;;;;;;;17.35;100.00;100852.07;104377;1269;69258;-69
2023/09/27 05:30:07;;;;;;;;;;;;;;;17.43;100.00;100856.45;104512;1258;72356;-66
2023/09/27 05:32:35;;;;;;;20.10;15.70;;;;;;;17.46;100.00;100856.44;104315;1256;60448;-65
2023/09/27 05:35:04;;;;;;;;;;;;;;;17.51;100.00;100858.52;104437;1256;59432;-66
2023/09/27 05:37:35;;;;;;;15.80;14.40;;;;;;;17.66;100.00;100857.92;104537;1254;73277;-66
2023/09/27 05:40:04;;;;;;;19.30;15.10;;;;;;;17.65;100.00;100861.16;104303;1272;69995;-65
2023/09/27 05:42:33;;;;;;;19.00;16.10;;;;;;;17.70;100.00;100863.73;104232;1275;73222;-65
2023/09/27 05:45:01;;;;;;;20.00;15.70;;;;;;;17.76;100.00;100866.77;104187;1261;61390;-70
2023/09/27 05:47:31;;;;;;;17.80;15.30;;;;;;;17.82;100.00;100872.48;104230;1256;60717;-67
2023/09/27 05:49:59;;;;;;;18.30;16.30;;;;;;;17.86;100.00;100876.02;104161;1259;73709;-66
2023/09/27 05:52:27;;;;;;;18.90;16.30;;;;;;;17.88;100.00;100870.77;104329;1256;69074;-66
2023/09/27 05:54:57;;;;;;;18.70;16.10;;;;;;;18.00;100.00;100877.05;104305;1272;72354;-63
2023/09/27 05:57:28;;;;;;;18.40;16.40;;;;;;;18.07;100.00;100879.33;104229;1256;61728;-63
2023/09/27 05:59:58;;;;;;;20.80;16.00;;;;;;;18.13;100.00;100874.92;104594;1256;59651;-64
2023/09/27 06:02:36;;;;;;;19.10;14.90;;;;;;;18.15;100.00;100877.80;105972;1254;71904;-66
2023/09/27 06:05:04;;;;;;;;;;;;;;;18.26;100.00;100878.78;107927;1254;69199;-69
2023/09/27 06:07:33;;;;;;;16.40;14.60;;;;;;;18.35;100.00;100880.64;105692;1257;72864;-66
2023/09/27 06:10:00;;;;;;;15.80;14.20;;;;;;;18.42;100.00;100888.07;105853;1254;62677;-64
2023/09/27 06:12:28;;;;;;;;;;;;;;;18.50;100.00;100886.55;107970;1254;59721;-65
2023/09/27 06:14:57;;;;;;;18.00;13.30;;;;;;;18.61;100.00;100887.88;108013;1254;72887;-65
2023/09/27 06:17:25;;;;;;;15.60;13.90;;;;;;;18.68;100.00;100887.30;105660;1256;69256;-63
2023/09/27 06:19:53;;;;;;;14.60;13.10;;;;;;;18.77;100.00;100890.02;104269;1256;72451;-63
2023/09/27 06:22:23;;;;;;;15.70;14.20;;;;;;;18.84;100.00;100892.45;104217;1259;60360;-64
2023/09/27 06:24:51;;;;;;;16.40;14.30;;;;;;;18.93;100.00;100893.41;104238;1254;60741;-64
2023/09/27 06:27:19;;;;;;;17.90;14.40;;;;;;;18.97;100.00;100892.21;105267;1254;72243;-63
2023/09/27 06:29:47;;;;;;;;;;;;;;;19.05;100.00;100893.01;104237;1277;69344;-64
2023/09/27 06:32:15;;;;;;;16.30;14.40;;;;;;;19.14;100.00;100891.80;104247;1259;73287;-64
2023/09/27 06:34:43;;;;;;;17.00;15.30;;;;;;;19.16;100.00;100892.05;104503;1256;61738;-63
2023/09/27 06:37:11;;;;;;;18.50;16.40;;;;;;;19.22;100.00;100890.45;104879;1257;60230;-64
2023/09/27 06:39:39;;;;;;;22.50;17.60;;;;;;;19.31;100.00;100889.70;104378;1255;72867;-64
2023/09/27 06:42:10;;;;;;;18.40;16.50;;;;;;;19.39;100.00;100889.42;104264;1259;69086;-63
2023/09/27 06:44:40;;;;;;;20.40;15.40;;;;;;;19.47;100.00;100890.16;107764;1256;73363;-64
2023/09/27 06:47:08;;;;;;;17.90;16.10;;;;;;;19.54;100.00;100891.88;104377;1259;60576;-64
2023/09/27 06:49:36;;;;;;;18.50;16.50;;;;;;;19.62;100.00;100895.67;104521;1260;59690;-63
2023/09/27 06:52:05;;;;;;;22.30;16.70;;;;;;;19.70;100.00;100897.00;104601;1259;73068;-64
2023/09/27 06:54:33;;;;;;;20.30;16.60;;;;;;;19.78;100.00;100895.95;104298;1259;69222;-64
2023/09/27 06:57:01;;;;;;;;;;;;;;;19.87;100.00;100894.73;104642;1256;72468;-63
2023/09/27 06:59:28;;;;;;;19.00;15.70;;;;;;;19.95;100.00;100900.98;104398;1256;60514;-64
2023/09/27 07:01:56;;;;;;;18.20;14.80;;;;;;;20.03;100.00;100902.27;104318;1254;59834;-64
2023/09/27 07:04:24;;;;;;;;;;;;;;;20.14;100.00;100901.02;107599;1254;73067;-67
2023/09/27 07:06:52;;;;;;;16.20;14.50;;;;;;;20.25;100.00;100901.81;104597;1270;69714;-62
2023/09/27 07:09:20;;;;;;;18.30;16.00;;;;;;;20.34;100.00;100903.55;104299;1259;72549;-66
2023/09/27 07:11:48;;;;;;;16.10;14.60;;;;;;;20.41;100.00;100900.77;105017;1263;61843;-62
2023/09/27 07:14:19;;;;;;;18.70;15.30;;;;;;;20.48;100.00;100903.67;104628;1256;59811;-62
2023/09/27 07:16:47;;;;;;;17.50;15.80;;;;;;;20.59;100.00;100903.20;104647;1256;73266;-62
2023/09/27 07:19:31;;;;;;;17.70;14.80;;;;;;;20.70;100.00;100900.20;104569;1259;68772;-62
2023/09/27 07:22:01;;;;;;;16.30;14.30;;;;;;;20.77;100.00;100902.41;104709;1259;73290;-64
2023/09/27 07:24:30;;;;;;;16.90;14.40;;;;;;;20.85;100.00;100903.13;104353;1259;61584;-64
2023/09/27 07:27:00;;;;;;;18.60;14.60;;;;;;;20.91;100.00;100901.66;104244;1255;60700;-63
2023/09/27 07:29:29;;;;;;;21.10;14.10;;;;;;;20.99;100.00;100900.94;104208;1272;74517;-63
2023/09/27 07:31:58;;;;;;;17.20;14.30;;;;;;;21.07;100.00;100900.95;104298;1260;69079;-64
2023/09/27 07:34:25;;;;;;;;;;;;;;;21.16;100.00;100903.39;104675;1256;72358;-64
2023/09/27 07:36:54;;;;;;;14.80;11.90;;;;;;;21.25;100.00;100904.05;104383;1257;61418;-64
2023/09/27 07:39:22;;;;;;;15.60;12.20;;;;;;;21.35;100.00;100899.21;104441;1255;60730;-63
2023/09/27 07:41:50;;;;;;;15.10;11.60;;;;;;;21.46;100.00;100901.41;104211;1261;73605;-64
2023/09/27 07:44:19;;;;;;;;;;;;;;;21.55;100.00;100899.66;104450;1259;70021;-63
2023/09/27 07:46:48;;;;;;;12.70;10.10;;;;;;;21.65;100.00;100893.84;104348;1263;71311;-62
2023/09/27 07:49:17;;;;;;;14.50;10.60;;;;;;;21.75;100.00;100898.80;104434;1277;63215;-63
2023/09/27 07:51:45;;;;;;;15.80;10.30;;;;;;;21.85;100.00;100899.92;104208;1275;60338;-63
2023/09/27 07:54:12;;;;;;;;;;;;;;;21.94;100.00;100895.00;104909;1262;73664;-62
2023/09/27 07:56:41;;;;;;;11.10;8.90;;;;;;;22.10;100.00;100891.73;104531;1256;70212;-65
2023/09/27 07:59:09;;;;;;;12.50;9.10;;;;;;;22.21;100.00;100892.02;104664;1259;72420;-62
2023/09/27 08:01:37;;;;;;;18.80;9.50;;;;;;;22.29;100.00;100888.60;104209;1270;61481;-63
2023/09/27 08:04:06;;;;;;;14.70;8.90;;;;;;;22.40;100.00;100887.50;107303;1254;60396;-63
2023/09/27 08:06:39;;;;;;;13.00;8.80;;;;;;;22.49;100.00;100887.86;106309;1256;74475;-61
2023/09/27 08:09:08;;;;;;;17.30;8.80;;;;;;;22.59;100.00;100886.61;107495;1256;69651;-64
2023/09/27 08:11:44;;;;;;;17.50;9.10;;;;;;;22.71;100.00;100889.51;104629;1257;73338;-63
2023/09/27 08:14:15;;;;;;;16.90;8.80;;;;;;;22.82;100.00;100890.14;104318;1261;61668;-63
2023/09/27 08:16:44;;;;;;;11.00;8.40;;;;;;;22.94;100.00;100887.09;104603;1259;62773;-65
2023/09/27 08:19:14;;;;;;;13.30;8.30;;;;;;;23.06;100.00;100883.30;104228;1259;73686;-64
2023/09/27 08:21:42;;;;;;;10.00;7.70;;;;;;;23.14;100.00;100881.66;104566;1256;69922;-64
2023/09/27 08:24:09;;;;;;;9.20;8.10;;;;;;;23.23;100.00;100879.73;104334;1272;72558;-63
2023/09/27 08:26:37;;;;;;;13.10;8.50;;;;;;;23.30;100.00;100879.02;104422;1259;61398;-64
2023/09/27 08:29:05;;;;;;;11.40;7.90;;;;;;;23.39;100.00;100877.26;104006;1261;60461;-63
2023/09/27 08:31:37;;;;;;;11.00;7.10;;;;;;;23.48;100.00;100873.89;104320;1262;77401;-63
2023/09/27 08:34:06;;;;;;;11.20;7.50;;;;;;;23.57;100.00;100867.80;104308;1259;69388;-62
2023/09/27 08:36:33;;;;;;;13.10;8.10;;;;;;;23.65;100.00;100871.65;104239;1259;72706;-64
2023/09/27 08:39:02;;;;;;;11.90;8.00;;;;;;;23.72;100.00;100871.81;104622;1254;61645;-65
2023/09/27 08:41:30;;;;;;;9.60;8.00;;;;;;;23.69;100.00;100866.48;104117;1259;60860;-63
2023/09/27 08:44:00;;;;;;;10.90;8.00;;;;;;;23.77;100.00;100867.30;104006;1262;73666;-64
2023/09/27 08:46:31;;;;;;;15.30;8.40;;;;;;;23.89;100.00;100865.11;106363;1256;69557;-67
2023/09/27 08:48:59;;;;;;;15.50;8.00;;;;;;;23.97;100.00;100867.19;105719;1262;73360;-63
2023/09/27 08:51:30;;;;;;;10.10;8.40;;;;;;;24.05;100.00;100863.14;104968;1256;61371;-63
2023/09/27 08:53:58;;;;;;;9.80;8.20;;;;;;;24.14;100.00;100865.13;104437;1269;60713;-63
2023/09/27 08:56:26;;;;;;;14.40;7.40;;;;;;;24.21;100.00;100863.14;104235;1253;73612;-61
2023/09/27 08:58:54;;;;;;;15.00;7.50;;;;;;;24.28;100.00;100863.83;104558;1258;69062;-65
2023/09/27 09:01:21;;;;;;;;;;;;;;;24.37;100.00;100863.11;104550;1258;72282;-66
2023/09/27 09:03:50;;;;;;;14.30;8.30;;;;;;;24.45;100.00;100865.27;104406;1274;61590;-63
2023/09/27 09:06:18;;;;;;;8.80;7.30;;;;;;;24.53;100.00;100858.94;105551;1252;60458;-63
2023/09/27 09:08:46;;;;;;;8.10;6.60;;;;;;;24.60;100.00;100858.17;108325;1257;74790;-62
2023/09/27 09:11:16;;;;;;;8.80;7.40;;;;;;;24.71;100.00;100861.92;108399;1252;69646;-61
2023/09/27 09:14:03;;;;;;;9.50;7.30;;;;;;;24.79;100.00;100855.85;108276;1253;72700;-61
2023/09/27 09:16:44;;;;;;;7.20;6.50;;;;;;;24.93;100.00;100854.96;104796;1253;60723;-60
2023/09/27 09:19:25;;;;;;;9.50;6.40;;;;;;;24.97;100.00;100849.41;104647;1258;60434;-61
2023/09/27 09:22:00;;;;;;;9.20;6.60;;;;;;;25.06;100.00;100849.02;104312;1260;73683;-62
2023/09/27 09:24:28;;;;;;;16.60;7.10;;;;;;;25.12;100.00;100849.89;104376;1260;69487;-62
2023/09/27 09:27:10;;;;;;;8.90;6.30;;;;;;;25.17;100.00;100853.03;104501;1258;72062;-63
2023/09/27 09:29:49;;;;;;;7.40;6.30;;;;;;;25.26;100.00;100844.48;104531;1258;61912;-61
2023/09/27 09:32:19;;;;;;;7.80;6.20;;;;;;;25.29;99.64;100841.27;104412;1257;60157;-63
2023/09/27 09:34:48;;;;;;;12.80;6.70;;;;;;;25.31;98.32;100837.17;104432;1263;74122;-64
2023/09/27 09:37:22;;;;;;;9.80;6.80;;;;;;;25.36;99.31;100833.70;104398;1256;69513;-63
2023/09/27 09:39:51;;;;;;;11.10;6.90;;;;;;;25.41;97.88;100831.11;104592;1259;72401;-66
2023/09/27 09:42:32;;;;;;;10.50;6.10;;;;;;;25.50;98.14;100833.91;105030;1254;62196;-64
2023/09/27 09:45:05;;;;;;;7.80;5.90;;;;;;;25.56;95.53;100835.42;104317;1256;60501;-60
2023/09/27 09:47:37;;;;;;;6.30;5.70;;;;;;;25.56;94.88;100826.58;104806;1256;74345;-61
2023/09/27 09:50:08;;;;;;;7.30;5.50;;;;;;;25.64;92.26;100824.07;104326;1269;69183;-62
2023/09/27 09:52:39;;;;;;;7.70;5.70;;;;;;;25.74;89.71;100823.40;104662;1256;73170;-65
2023/09/27 15:30:15;;;;;;;12.00;5.10;;;;;;;26.59;54.65;100639.98;101729;1294;601253;-63
2023/09/27 15:32:43;;;;;;;9.20;4.20;;;;;;;26.79;53.59;100639.55;103855;1267;59779;-62
2023/09/27 15:35:12;;;;;;;;;;;;;;;26.61;53.89;100639.24;103527;1286;60244;-62
2023/09/27 15:37:50;;;;;;;12.80;5.30;;;;;;;26.43;54.68;100638.41;103630;1273;72009;-60
2023/09/27 15:40:19;;;;;;;8.40;5.50;;;;;;;26.23;55.39;100637.39;103667;1273;69758;-63
2023/09/27 15:42:53;;;;;;;13.40;5.70;;;;;;;26.04;55.61;100643.27;103217;1270;441921;-63
2023/09/27 15:45:23;;;;;;;10.10;5.30;;;;;;;25.86;56.46;100642.38;103937;1263;60063;-62
2023/09/27 15:47:52;;;;;;;9.50;4.90;;;;;;;25.70;57.15;100643.88;103936;1264;59718;-62
2023/09/27 15:50:20;;;;;;;10.70;4.90;;;;;;;25.53;57.70;100644.84;103908;1268;72672;-64
2023/09/27 15:52:48;;;;;;;11.70;5.60;;;;;;;25.36;58.28;100644.70;103977;1264;69157;-63
2023/09/27 15:55:16;;;;;;;14.30;6.30;;;;;;;25.19;59.27;100644.21;103607;1270;72532;-62
2023/09/27 15:57:44;;;;;;;11.10;5.90;;;;;;;25.01;60.42;100643.30;104124;1264;59974;-63
2023/09/27 16:00:13;;;;;;;10.40;6.60;;;;;;;24.84;61.21;100642.60;103915;1264;59736;-64
